Hlavní strana
METAR-TAF:

METAR-TAF

Letiště :

Baldwin_County_Airport

Milledgeville, Georgie, Spojené státy americké

zeměpisná šířka: 33-09-15N, zeměpisná délka: 083-14-26W, výška: 117 m

Aktuální stav počasí

Zpráva byla vytvořena před 8 minutami, v 11:15 UTC
Bezvětří
Teplota 22°C
Vlhkost vzduchu 94%
Tlak 1021 hPa
Viditelnost: 11.3 km
Jasno

METAR: KMLJ 261115Z AUTO 00000KT 7SM CLR 22/21 A3015 RMK AO2

Čas: 07:23 (11:23 UTC)


TAF: chybějící

Stav a předpovědi počasí z více než 4 000 letišť (zprávy METAR a TAF).

Červené a žluté tečky na mapě představují dostupné meteorologické stanice.

Když kurzor umístíte na tečku, zobrazí se název stanice.

Pak kliknutím zobrazíte stav a předpověď počasí.

Chcete-li změnit mapu, kliknutím na zelené tlačítko se znaménkem +mapu přiblížíte, kliknutím na zelené tlačítko se znaménkem – mapu oddálíte a kliknutím na zelené šipky přejdete na sousední mapy.


METAR-TAF: